sensor_id;sensor_type;location;lat;lon;timestamp;P1;P2;P0
45788;PMS7003;31492;54.856;26.318;2023-03-15T00:03:43;11.1;9.1;6.9
45788;PMS7003;31492;54.856;26.318;2023-03-15T00:08:29;11.1;9.2;7.3
45788;PMS7003;31492;54.856;26.318;2023-03-15T00:14:03;11.1;10;7.7
45788;PMS7003;31492;54.856;26.318;2023-03-15T00:18:49;12.4;10.4;7.9
45788;PMS7003;31492;54.856;26.318;2023-03-15T00:23:35;11.9;10.1;8
45788;PMS7003;31492;54.856;26.318;2023-03-15T00:28:29;12.1;11;8.3
45788;PMS7003;31492;54.856;26.318;2023-03-15T00:33:49;12.4;10.8;8.5
45788;PMS7003;31492;54.856;26.318;2023-03-15T00:38:29;12.6;10.4;8
45788;PMS7003;31492;54.856;26.318;2023-03-15T00:43:53;11.9;10;7.6
45788;PMS7003;31492;54.856;26.318;2023-03-15T00:48:29;13.7;11.1;8.3
45788;PMS7003;31492;54.856;26.318;2023-03-15T00:53:42;11.9;10.4;7.7
45788;PMS7003;31492;54.856;26.318;2023-03-15T00:58:29;12.6;10.8;8.3
45788;PMS7003;31492;54.856;26.318;2023-03-15T01:03:55;12.3;10.2;8.1
45788;PMS7003;31492;54.856;26.318;2023-03-15T01:08:35;13;10.6;8.1
45788;PMS7003;31492;54.856;26.318;2023-03-15T01:13:29;11.7;9.9;7.7
45788;PMS7003;31492;54.856;26.318;2023-03-15T01:18:29;11.7;10.1;7.8
45788;PMS7003;31492;54.856;26.318;2023-03-15T01:23:39;11.3;9.4;7.6
45788;PMS7003;31492;54.856;26.318;2023-03-15T01:28:35;10.9;8.6;7
45788;PMS7003;31492;54.856;26.318;2023-03-15T01:33:53;9.3;8.3;6.5
45788;PMS7003;31492;54.856;26.318;2023-03-15T01:38:39;10.6;8.8;6.9
45788;PMS7003;31492;54.856;26.318;2023-03-15T01:43:32;11.5;9.3;7.1
45788;PMS7003;31492;54.856;26.318;2023-03-15T01:48:31;9.6;8.8;7.2
45788;PMS7003;31492;54.856;26.318;2023-03-15T01:53:45;9.9;8.5;6.6
45788;PMS7003;31492;54.856;26.318;2023-03-15T01:59:04;9.8;8.8;7
45788;PMS7003;31492;54.856;26.318;2023-03-15T02:03:30;10;8.7;7.1
45788;PMS7003;31492;54.856;26.318;2023-03-15T02:08:30;10.8;9.2;7.3
45788;PMS7003;31492;54.856;26.318;2023-03-15T02:13:41;9.2;8.3;6.6
45788;PMS7003;31492;54.856;26.318;2023-03-15T02:18:41;8.9;7.4;5.9
45788;PMS7003;31492;54.856;26.318;2023-03-15T02:24:04;10.3;8.8;7.2
45788;PMS7003;31492;54.856;26.318;2023-03-15T02:28:29;9.4;7.8;6.2
45788;PMS7003;31492;54.856;26.318;2023-03-15T02:33:31;9.2;8.1;6.7
45788;PMS7003;31492;54.856;26.318;2023-03-15T02:38:29;10.5;9.3;7.2
45788;PMS7003;31492;54.856;26.318;2023-03-15T02:43:29;11.4;9.1;7
45788;PMS7003;31492;54.856;26.318;2023-03-15T02:48:35;10.7;9.2;7.3
45788;PMS7003;31492;54.856;26.318;2023-03-15T02:53:29;10;9.2;7.1
45788;PMS7003;31492;54.856;26.318;2023-03-15T02:58:35;9.9;8.6;7.1
45788;PMS7003;31492;54.856;26.318;2023-03-15T03:03:29;9.5;8.5;6.7
45788;PMS7003;31492;54.856;26.318;2023-03-15T03:08:29;10.2;8.4;7
45788;PMS7003;31492;54.856;26.318;2023-03-15T03:13:41;9.7;8.2;6.1
45788;PMS7003;31492;54.856;26.318;2023-03-15T03:18:45;9.3;8.6;6.5
45788;PMS7003;31492;54.856;26.318;2023-03-15T03:23:43;10.4;8.8;6.6
45788;PMS7003;31492;54.856;26.318;2023-03-15T03:28:30;10.1;8.5;6.6
45788;PMS7003;31492;54.856;26.318;2023-03-15T03:33:29;9.7;8.4;6.7
45788;PMS7003;31492;54.856;26.318;2023-03-15T03:38:29;9.5;8.4;6.7
45788;PMS7003;31492;54.856;26.318;2023-03-15T03:43:35;9.7;8;6.2
45788;PMS7003;31492;54.856;26.318;2023-03-15T03:48:29;9.6;8;6.3
45788;PMS7003;31492;54.856;26.318;2023-03-15T03:53:41;9.4;8;6.3
45788;PMS7003;31492;54.856;26.318;2023-03-15T03:58:29;9.2;7.8;6.3
45788;PMS7003;31492;54.856;26.318;2023-03-15T04:03:43;9.8;8;6.5
45788;PMS7003;31492;54.856;26.318;2023-03-15T04:08:29;10.3;8.6;6.9
45788;PMS7003;31492;54.856;26.318;2023-03-15T04:13:29;10;8.9;7
45788;PMS7003;31492;54.856;26.318;2023-03-15T04:18:29;9.2;8.3;6.8
45788;PMS7003;31492;54.856;26.318;2023-03-15T04:23:41;9.7;9;7.3
45788;PMS7003;31492;54.856;26.318;2023-03-15T04:28:49;10.6;9.2;7.2
45788;PMS7003;31492;54.856;26.318;2023-03-15T04:34:11;10.6;8.7;7
45788;PMS7003;31492;54.856;26.318;2023-03-15T04:38:29;10.3;9.1;7.2
45788;PMS7003;31492;54.856;26.318;2023-03-15T04:43:29;11.4;9.6;7.4
45788;PMS7003;31492;54.856;26.318;2023-03-15T04:48:55;10.3;8.4;6.6
45788;PMS7003;31492;54.856;26.318;2023-03-15T04:54:01;12.2;10;8
45788;PMS7003;31492;54.856;26.318;2023-03-15T04:58:29;16.6;15;11.8
45788;PMS7003;31492;54.856;26.318;2023-03-15T05:03:53;14.4;12.8;9.9
45788;PMS7003;31492;54.856;26.318;2023-03-15T05:09:03;25.9;22.6;17.7
45788;PMS7003;31492;54.856;26.318;2023-03-15T05:13:47;13.3;11.7;9.3
45788;PMS7003;31492;54.856;26.318;2023-03-15T05:18:29;12.1;10.5;8.4
45788;PMS7003;31492;54.856;26.318;2023-03-15T05:23:29;12.2;11.1;8.5
45788;PMS7003;31492;54.856;26.318;2023-03-15T05:28:53;13.2;11.4;8.7
45788;PMS7003;31492;54.856;26.318;2023-03-15T05:33:41;12.3;10.6;8.2
45788;PMS7003;31492;54.856;26.318;2023-03-15T05:38:43;11.9;10.7;8.5
45788;PMS7003;31492;54.856;26.318;2023-03-15T05:44:03;15.6;13.2;9.9
45788;PMS7003;31492;54.856;26.318;2023-03-15T05:48:41;14.3;11.6;8.9
45788;PMS7003;31492;54.856;26.318;2023-03-15T05:53:39;13.7;12.5;9.6
45788;PMS7003;31492;54.856;26.318;2023-03-15T05:58:29;14.3;12.6;9.7
45788;PMS7003;31492;54.856;26.318;2023-03-15T06:03:29;12.7;11.8;9.2
45788;PMS7003;31492;54.856;26.318;2023-03-15T06:08:35;10.3;9.2;7
45788;PMS7003;31492;54.856;26.318;2023-03-15T06:13:29;14;11.7;9.3
45788;PMS7003;31492;54.856;26.318;2023-03-15T06:18:41;10.4;9.3;7.1
45788;PMS7003;31492;54.856;26.318;2023-03-15T06:23:39;8.9;7.6;6
45788;PMS7003;31492;54.856;26.318;2023-03-15T06:28:29;6.8;5.5;4.4
45788;PMS7003;31492;54.856;26.318;2023-03-15T06:33:49;3.5;3.1;2.4
45788;PMS7003;31492;54.856;26.318;2023-03-15T06:38:29;2.3;1.9;1.6
45788;PMS7003;31492;54.856;26.318;2023-03-15T06:43:29;1.1;0.8;0.6
45788;PMS7003;31492;54.856;26.318;2023-03-15T06:48:35;1.4;0.8;0.5
45788;PMS7003;31492;54.856;26.318;2023-03-15T06:53:29;0.1;0.1;0.1
45788;PMS7003;31492;54.856;26.318;2023-03-15T06:58:29;0;0;0
45788;PMS7003;31492;54.856;26.318;2023-03-15T07:03:35;0.2;0;0
45788;PMS7003;31492;54.856;26.318;2023-03-15T07:08:47;0.1;0;0
45788;PMS7003;31492;54.856;26.318;2023-03-15T07:13:29;0;0;0
45788;PMS7003;31492;54.856;26.318;2023-03-15T07:18:35;0.2;0;0
45788;PMS7003;31492;54.856;26.318;2023-03-15T07:23:55;0.1;0;0
45788;PMS7003;31492;54.856;26.318;2023-03-15T07:28:29;0.1;0;0
45788;PMS7003;31492;54.856;26.318;2023-03-15T07:33:36;0.3;0;0
45788;PMS7003;31492;54.856;26.318;2023-03-15T07:38:43;0.6;0;0
45788;PMS7003;31492;54.856;26.318;2023-03-15T07:43:29;0.1;0;0
45788;PMS7003;31492;54.856;26.318;2023-03-15T07:48:39;0.3;0.1;0
45788;PMS7003;31492;54.856;26.318;2023-03-15T07:53:29;0.5;0.2;0
45788;PMS7003;31492;54.856;26.318;2023-03-15T07:58:29;0.3;0;0
45788;PMS7003;31492;54.856;26.318;2023-03-15T08:03:29;0.3;0;0
45788;PMS7003;31492;54.856;26.318;2023-03-15T08:08:29;0.2;0.2;0
45788;PMS7003;31492;54.856;26.318;2023-03-15T08:13:35;0.2;0;0
45788;PMS7003;31492;54.856;26.318;2023-03-15T08:18:29;0.3;0;0
45788;PMS7003;31492;54.856;26.318;2023-03-15T08:23:29;0.3;0;0
45788;PMS7003;31492;54.856;26.318;2023-03-15T08:28:29;0.2;0;0
45788;PMS7003;31492;54.856;26.318;2023-03-15T08:33:59;0;0;0
45788;PMS7003;31492;54.856;26.318;2023-03-15T08:38:39;0.9;0.2;0
45788;PMS7003;31492;54.856;26.318;2023-03-15T08:43:49;0.3;0.1;0
45788;PMS7003;31492;54.856;26.318;2023-03-15T08:48:29;0.5;0.1;0
45788;PMS7003;31492;54.856;26.318;2023-03-15T08:53:53;0.3;0.2;0
45788;PMS7003;31492;54.856;26.318;2023-03-15T08:58:47;0.3;0.2;0
45788;PMS7003;31492;54.856;26.318;2023-03-15T09:03:29;1.4;0.9;0.6
45788;PMS7003;31492;54.856;26.318;2023-03-15T09:08:29;1.5;1.1;0.6
45788;PMS7003;31492;54.856;26.318;2023-03-15T09:13:29;1.4;0.9;0.3
45788;PMS7003;31492;54.856;26.318;2023-03-15T09:18:53;0.6;0.4;0.1
45788;PMS7003;31492;54.856;26.318;2023-03-15T09:23:29;0.7;0.5;0.3
45788;PMS7003;31492;54.856;26.318;2023-03-15T09:28:47;1.1;0.6;0.3
45788;PMS7003;31492;54.856;26.318;2023-03-15T09:33:43;1.2;0.5;0.2
45788;PMS7003;31492;54.856;26.318;2023-03-15T09:38:29;1;0.5;0.3
45788;PMS7003;31492;54.856;26.318;2023-03-15T09:44:06;1.3;0.8;0.3
45788;PMS7003;31492;54.856;26.318;2023-03-15T09:48:46;1;0.4;0.2
45788;PMS7003;31492;54.856;26.318;2023-03-15T09:53:36;1;0.7;0.2
45788;PMS7003;31492;54.856;26.318;2023-03-15T09:58:57;0.8;0.2;0.1
45788;PMS7003;31492;54.856;26.318;2023-03-15T10:03:45;0.9;0.4;0.1
45788;PMS7003;31492;54.856;26.318;2023-03-15T10:08:35;1;0.3;0.2
45788;PMS7003;31492;54.856;26.318;2023-03-15T10:13:44;0.8;0.5;0.2
45788;PMS7003;31492;54.856;26.318;2023-03-15T10:18:32;1;0.4;0.1
45788;PMS7003;31492;54.856;26.318;2023-03-15T10:23:37;1.1;0.4;0.3
45788;PMS7003;31492;54.856;26.318;2023-03-15T10:28:41;1.1;0.5;0.4
45788;PMS7003;31492;54.856;26.318;2023-03-15T10:33:30;0.9;0.6;0.3
45788;PMS7003;31492;54.856;26.318;2023-03-15T10:38:29;1;0.6;0.4
45788;PMS7003;31492;54.856;26.318;2023-03-15T10:43:31;1.3;0.7;0.5
45788;PMS7003;31492;54.856;26.318;2023-03-15T10:48:30;1.2;0.6;0.2
45788;PMS7003;31492;54.856;26.318;2023-03-15T10:53:29;1.1;0.8;0.5
45788;PMS7003;31492;54.856;26.318;2023-03-15T10:58:38;1.3;1.1;0.7
45788;PMS7003;31492;54.856;26.318;2023-03-15T11:04:01;1.5;0.7;0.4
45788;PMS7003;31492;54.856;26.318;2023-03-15T11:08:35;2.1;1;0.5
45788;PMS7003;31492;54.856;26.318;2023-03-15T11:13:30;1.7;1;0.5
45788;PMS7003;31492;54.856;26.318;2023-03-15T11:18:42;1.1;0.7;0.3
45788;PMS7003;31492;54.856;26.318;2023-03-15T11:23:31;2.1;0.9;0.6
45788;PMS7003;31492;54.856;26.318;2023-03-15T11:28:50;1.5;0.7;0.3
45788;PMS7003;31492;54.856;26.318;2023-03-15T11:34:18;1.6;0.7;0.4
45788;PMS7003;31492;54.856;26.318;2023-03-15T11:38:58;1;0.6;0.2
45788;PMS7003;31492;54.856;26.318;2023-03-15T11:43:30;1.3;0.7;0.4
45788;PMS7003;31492;54.856;26.318;2023-03-15T11:48:36;1.3;0.7;0.6
45788;PMS7003;31492;54.856;26.318;2023-03-15T11:53:30;1.4;0.8;0.3
45788;PMS7003;31492;54.856;26.318;2023-03-15T11:58:30;1.1;0.7;0.2
45788;PMS7003;31492;54.856;26.318;2023-03-15T12:03:32;1;0.8;0.3
45788;PMS7003;31492;54.856;26.318;2023-03-15T12:08:46;1.4;0.3;0.1
45788;PMS7003;31492;54.856;26.318;2023-03-15T12:13:49;0.6;0.4;0.2
45788;PMS7003;31492;54.856;26.318;2023-03-15T12:18:38;0.5;0.2;0
45788;PMS7003;31492;54.856;26.318;2023-03-15T12:23:45;1.1;0.5;0.3
45788;PMS7003;31492;54.856;26.318;2023-03-15T12:28:53;0.7;0.5;0.1
45788;PMS7003;31492;54.856;26.318;2023-03-15T12:33:44;1.1;0.2;0
45788;PMS7003;31492;54.856;26.318;2023-03-15T12:38:54;0.9;0.3;0.1
45788;PMS7003;31492;54.856;26.318;2023-03-15T12:43:38;0.8;0.4;0.2
45788;PMS7003;31492;54.856;26.318;2023-03-15T12:48:30;0.5;0.1;0
45788;PMS7003;31492;54.856;26.318;2023-03-15T12:53:34;0.6;0.3;0.2
45788;PMS7003;31492;54.856;26.318;2023-03-15T12:58:43;1.6;0.5;0.3
45788;PMS7003;31492;54.856;26.318;2023-03-15T13:03:30;0.9;0.5;0.3
45788;PMS7003;31492;54.856;26.318;2023-03-15T13:08:30;0.6;0.3;0.1
45788;PMS7003;31492;54.856;26.318;2023-03-15T13:14:04;0.6;0.2;0.1
45788;PMS7003;31492;54.856;26.318;2023-03-15T13:18:30;1.5;0.4;0.3
45788;PMS7003;31492;54.856;26.318;2023-03-15T13:23:42;0.5;0.3;0.2
45788;PMS7003;31492;54.856;26.318;2023-03-15T13:28:31;0.4;0.1;0
45788;PMS7003;31492;54.856;26.318;2023-03-15T13:33:30;0.3;0.1;0
45788;PMS7003;31492;54.856;26.318;2023-03-15T13:39:09;0.8;0.3;0.2
45788;PMS7003;31492;54.856;26.318;2023-03-15T13:43:36;1.4;0.1;0.1
45788;PMS7003;31492;54.856;26.318;2023-03-15T13:48:42;0.8;0.3;0.1
45788;PMS7003;31492;54.856;26.318;2023-03-15T13:53:42;0.2;0.2;0.1
45788;PMS7003;31492;54.856;26.318;2023-03-15T13:58:46;0.4;0.4;0.2
45788;PMS7003;31492;54.856;26.318;2023-03-15T14:03:40;0.6;0.3;0.1
45788;PMS7003;31492;54.856;26.318;2023-03-15T14:08:30;0.6;0.2;0
45788;PMS7003;31492;54.856;26.318;2023-03-15T14:13:47;0.7;0.5;0.2
45788;PMS7003;31492;54.856;26.318;2023-03-15T14:18:31;1.1;0.5;0.1
45788;PMS7003;31492;54.856;26.318;2023-03-15T14:23:43;0.5;0.2;0.1
45788;PMS7003;31492;54.856;26.318;2023-03-15T14:28:30;0.5;0.1;0.1
45788;PMS7003;31492;54.856;26.318;2023-03-15T14:33:31;0.5;0.2;0
45788;PMS7003;31492;54.856;26.318;2023-03-15T14:38:31;1;0.2;0
45788;PMS7003;31492;54.856;26.318;2023-03-15T14:43:42;0.7;0.2;0
45788;PMS7003;31492;54.856;26.318;2023-03-15T14:48:30;0.7;0.3;0
45788;PMS7003;31492;54.856;26.318;2023-03-15T14:53:31;0.5;0.2;0.1
45788;PMS7003;31492;54.856;26.318;2023-03-15T14:58:42;0.6;0.4;0.1
45788;PMS7003;31492;54.856;26.318;2023-03-15T15:03:42;0.4;0.2;0.1
45788;PMS7003;31492;54.856;26.318;2023-03-15T15:08:36;0.7;0.3;0.1
45788;PMS7003;31492;54.856;26.318;2023-03-15T15:13:46;0.7;0.4;0.2
45788;PMS7003;31492;54.856;26.318;2023-03-15T15:18:42;0.6;0.3;0.1
45788;PMS7003;31492;54.856;26.318;2023-03-15T15:24:02;0.3;0.2;0.1
45788;PMS7003;31492;54.856;26.318;2023-03-15T15:28:40;0.7;0.4;0.2
45788;PMS7003;31492;54.856;26.318;2023-03-15T15:34:08;0.7;0.4;0.1
45788;PMS7003;31492;54.856;26.318;2023-03-15T15:38:42;0.6;0.2;0.1
45788;PMS7003;31492;54.856;26.318;2023-03-15T15:43:30;0.3;0.2;0
45788;PMS7003;31492;54.856;26.318;2023-03-15T15:48:54;0.5;0.3;0.1
45788;PMS7003;31492;54.856;26.318;2023-03-15T15:53:30;0.6;0.2;0.1
45788;PMS7003;31492;54.856;26.318;2023-03-15T15:58:56;0.4;0.2;0.1
45788;PMS7003;31492;54.856;26.318;2023-03-15T16:03:46;0.5;0.2;0
45788;PMS7003;31492;54.856;26.318;2023-03-15T16:08:30;0.2;0.2;0
45788;PMS7003;31492;54.856;26.318;2023-03-15T16:13:40;0.2;0.1;0
45788;PMS7003;31492;54.856;26.318;2023-03-15T16:18:56;0.7;0.5;0
45788;PMS7003;31492;54.856;26.318;2023-03-15T16:23:30;0.4;0.2;0.1
45788;PMS7003;31492;54.856;26.318;2023-03-15T16:28:30;0.3;0.1;0
45788;PMS7003;31492;54.856;26.318;2023-03-15T16:33:30;0.3;0.1;0
45788;PMS7003;31492;54.856;26.318;2023-03-15T16:38:52;0.3;0;0
45788;PMS7003;31492;54.856;26.318;2023-03-15T16:43:54;0.5;0.1;0
45788;PMS7003;31492;54.856;26.318;2023-03-15T16:48:36;0.4;0.2;0.1
45788;PMS7003;31492;54.856;26.318;2023-03-15T16:53:30;0.6;0.3;0.1
45788;PMS7003;31492;54.856;26.318;2023-03-15T16:58:30;0.5;0.3;0.1
45788;PMS7003;31492;54.856;26.318;2023-03-15T17:03:30;0.4;0.2;0
45788;PMS7003;31492;54.856;26.318;2023-03-15T17:08:44;0.3;0.1;0
45788;PMS7003;31492;54.856;26.318;2023-03-15T17:13:44;0.5;0.3;0.1
45788;PMS7003;31492;54.856;26.318;2023-03-15T17:18:36;0.4;0.2;0
45788;PMS7003;31492;54.856;26.318;2023-03-15T17:23:44;0.6;0.2;0
45788;PMS7003;31492;54.856;26.318;2023-03-15T17:28:44;0.5;0.1;0
45788;PMS7003;31492;54.856;26.318;2023-03-15T17:33:48;0.4;0.2;0.1
45788;PMS7003;31492;54.856;26.318;2023-03-15T17:38:30;0.7;0.3;0.2
45788;PMS7003;31492;54.856;26.318;2023-03-15T17:43:54;0.5;0.2;0.1
45788;PMS7003;31492;54.856;26.318;2023-03-15T17:48:30;0.4;0.2;0.1
45788;PMS7003;31492;54.856;26.318;2023-03-15T17:53:30;0.4;0.1;0.1
45788;PMS7003;31492;54.856;26.318;2023-03-15T17:58:36;0.5;0.3;0.1
45788;PMS7003;31492;54.856;26.318;2023-03-15T18:03:30;0.4;0.2;0
45788;PMS7003;31492;54.856;26.318;2023-03-15T18:08:30;0.3;0.1;0
45788;PMS7003;31492;54.856;26.318;2023-03-15T18:13:36;0.4;0.1;0
45788;PMS7003;31492;54.856;26.318;2023-03-15T18:18:48;0.8;0.1;0
45788;PMS7003;31492;54.856;26.318;2023-03-15T18:24:12;0.4;0.2;0
45788;PMS7003;31492;54.856;26.318;2023-03-15T18:28:50;0.3;0.1;0
45788;PMS7003;31492;54.856;26.318;2023-03-15T18:33:44;0.3;0;0
45788;PMS7003;31492;54.856;26.318;2023-03-15T18:38:44;0.1;0.1;0
45788;PMS7003;31492;54.856;26.318;2023-03-15T18:43:44;0.1;0;0
45788;PMS7003;31492;54.856;26.318;2023-03-15T18:49:06;0.5;0.3;0.2
45788;PMS7003;31492;54.856;26.318;2023-03-15T18:53:44;0.1;0.1;0
45788;PMS7003;31492;54.856;26.318;2023-03-15T18:58:30;0;0;0
45788;PMS7003;31492;54.856;26.318;2023-03-15T19:03:30;0.2;0;0
45788;PMS7003;31492;54.856;26.318;2023-03-15T19:09:04;0.4;0.2;0
45788;PMS7003;31492;54.856;26.318;2023-03-15T19:13:30;0.6;0.1;0
45788;PMS7003;31492;54.856;26.318;2023-03-15T19:19:02;0.6;0.1;0.1
45788;PMS7003;31492;54.856;26.318;2023-03-15T19:23:52;0.3;0.1;0.1
45788;PMS7003;31492;54.856;26.318;2023-03-15T19:28:40;0.4;0.2;0.1
45788;PMS7003;31492;54.856;26.318;2023-03-15T19:34:12;0.3;0.2;0
45788;PMS7003;31492;54.856;26.318;2023-03-15T19:38:50;0.8;0.4;0.2
45788;PMS7003;31492;54.856;26.318;2023-03-15T19:43:42;0.7;0.2;0
45788;PMS7003;31492;54.856;26.318;2023-03-15T19:48:30;0.2;0.1;0.1
45788;PMS7003;31492;54.856;26.318;2023-03-15T19:54:04;0.2;0.1;0.1
45788;PMS7003;31492;54.856;26.318;2023-03-15T19:58:40;0.5;0.1;0.1
45788;PMS7003;31492;54.856;26.318;2023-03-15T20:03:50;1.1;0.8;0.5
45788;PMS7003;31492;54.856;26.318;2023-03-15T20:08:30;1.7;1.4;1
45788;PMS7003;31492;54.856;26.318;2023-03-15T20:13:30;3.7;3.1;2.8
45788;PMS7003;31492;54.856;26.318;2023-03-15T20:18:44;2.4;1.9;1.7
45788;PMS7003;31492;54.856;26.318;2023-03-15T20:23:36;2.7;2;1.7
45788;PMS7003;31492;54.856;26.318;2023-03-15T20:28:44;4.7;4.1;3.6
45788;PMS7003;31492;54.856;26.318;2023-03-15T20:33:46;7.3;6.7;5.8
45788;PMS7003;31492;54.856;26.318;2023-03-15T20:38:38;6.7;6.2;5.3
45788;PMS7003;31492;54.856;26.318;2023-03-15T20:43:50;4.1;3.6;3
45788;PMS7003;31492;54.856;26.318;2023-03-15T20:48:31;2.4;2.1;1.9
45788;PMS7003;31492;54.856;26.318;2023-03-15T20:53:44;2.3;1.9;1.6
45788;PMS7003;31492;54.856;26.318;2023-03-15T20:59:10;2.5;2.2;1.9
45788;PMS7003;31492;54.856;26.318;2023-03-15T21:03:30;2.6;2.4;1.9
45788;PMS7003;31492;54.856;26.318;2023-03-15T21:08:40;2.2;1.7;1.3
45788;PMS7003;31492;54.856;26.318;2023-03-15T21:13:58;3;2;1.7
45788;PMS7003;31492;54.856;26.318;2023-03-15T21:18:50;1.9;1.6;1.2
45788;PMS7003;31492;54.856;26.318;2023-03-15T21:23:30;1.8;1.3;1.1
45788;PMS7003;31492;54.856;26.318;2023-03-15T21:28:30;1.5;1.1;1
45788;PMS7003;31492;54.856;26.318;2023-03-15T21:33:44;1.5;1.3;1.1
45788;PMS7003;31492;54.856;26.318;2023-03-15T21:39:00;1.6;1.3;0.9
45788;PMS7003;31492;54.856;26.318;2023-03-15T21:43:44;1.5;0.8;0.7
45788;PMS7003;31492;54.856;26.318;2023-03-15T21:48:30;1.7;0.9;0.7
45788;PMS7003;31492;54.856;26.318;2023-03-15T21:53:30;1.6;1;0.7
45788;PMS7003;31492;54.856;26.318;2023-03-15T21:58:30;0.9;0.8;0.6
45788;PMS7003;31492;54.856;26.318;2023-03-15T22:03:38;1.3;0.7;0.4
45788;PMS7003;31492;54.856;26.318;2023-03-15T22:08:44;0.9;0.8;0.5
45788;PMS7003;31492;54.856;26.318;2023-03-15T22:13:44;1.1;0.7;0.4
45788;PMS7003;31492;54.856;26.318;2023-03-15T22:18:44;1.3;0.8;0.5
45788;PMS7003;31492;54.856;26.318;2023-03-15T22:23:30;0.6;0.4;0.3
45788;PMS7003;31492;54.856;26.318;2023-03-15T22:28:36;1.1;0.7;0.5
45788;PMS7003;31492;54.856;26.318;2023-03-15T22:33:36;0.9;0.7;0.5
45788;PMS7003;31492;54.856;26.318;2023-03-15T22:38:56;1.1;0.6;0.4
45788;PMS7003;31492;54.856;26.318;2023-03-15T22:43:30;1.4;0.9;0.8
45788;PMS7003;31492;54.856;26.318;2023-03-15T22:48:30;1.3;0.7;0.4
45788;PMS7003;31492;54.856;26.318;2023-03-15T22:53:44;0.9;0.6;0.4
45788;PMS7003;31492;54.856;26.318;2023-03-15T22:58:30;1.1;0.9;0.5
45788;PMS7003;31492;54.856;26.318;2023-03-15T23:03:30;1.2;0.5;0.3
45788;PMS7003;31492;54.856;26.318;2023-03-15T23:08:44;1;0.6;0.4
45788;PMS7003;31492;54.856;26.318;2023-03-15T23:13:30;0.9;0.7;0.3
45788;PMS7003;31492;54.856;26.318;2023-03-15T23:18:44;0.7;0.4;0.1
45788;PMS7003;31492;54.856;26.318;2023-03-15T23:23:30;0.5;0.4;0.2
45788;PMS7003;31492;54.856;26.318;2023-03-15T23:28:36;0.4;0.4;0.2
45788;PMS7003;31492;54.856;26.318;2023-03-15T23:33:30;0.3;0.2;0
45788;PMS7003;31492;54.856;26.318;2023-03-15T23:38:30;0.6;0.4;0.1
45788;PMS7003;31492;54.856;26.318;2023-03-15T23:43:30;0.4;0.2;0
45788;PMS7003;31492;54.856;26.318;2023-03-15T23:48:44;0.4;0.2;0.1
45788;PMS7003;31492;54.856;26.318;2023-03-15T23:53:30;0.3;0.1;0.1
45788;PMS7003;31492;54.856;26.318;2023-03-15T23:58:56;0.7;0.3;0.1
